»·PEaware :: N903DB KGCN-KBOI

N903DB :: KGCN-KBOI

FLIGHT INFORMATION

Flight Status: Arrived
Operator: Privately registered:
United States
More flights under this callsign
Pilot: Drew L. (13237)
Aircraft: SOCATA TBM-900
(TBM9)
More flights by this aircraft type
Origin: KGCN Grand Canyon Natl Park
United States
Destination: KBOI Boise Air Terminal/Gowen
United States
More flights between these airports :: More routes between these airports
Route: +PARKS4 PGS V562 MEADS ELY LWL BROPH SPUUD3
File this flight plan on PilotEdge
Remarks: ROGER
Altitude:
(Current/Filed)
30,000ft
Speed:
(Current/Filed)
0kts
Departed: 23-Oct-18 06:33 PM
Arrived: 23-Oct-18 08:47 PM
Distance/Time
Traveled:
494nm/2:14
Distance/Time
To Go:
Arrived

Flight Plot

Page will automatically refresh every two minutes.

Flight plan parsing failed; only flown route is shown


Map Options




Map Legend


Flown Route
Filed Route
Departure Airport
Arrival Airport
Navaid (VOR, NDB)
Fix

Horizontal Profiles

Position Reports

Time Latitude Longitude Heading Altitude Ground
Speed
23-Oct-18 18:21 35.960045 -112.135940 222 6603ft 0kts
23-Oct-18 18:22 35.960045 -112.135940 222 6603ft 0kts
23-Oct-18 18:23 35.960045 -112.135940 222 6603ft 0kts
23-Oct-18 18:24 35.960045 -112.135940 222 6603ft 0kts
23-Oct-18 18:25 35.960045 -112.135940 222 6603ft 0kts
23-Oct-18 18:26 35.960045 -112.135940 222 6603ft 0kts
23-Oct-18 18:27 35.960045 -112.135940 222 6603ft 0kts
23-Oct-18 18:28 35.960045 -112.135940 222 6603ft 0kts
23-Oct-18 18:29 35.960045 -112.135940 222 6603ft 0kts
23-Oct-18 18:30 35.960045 -112.135940 222 6603ft 0kts
23-Oct-18 18:31 35.960045 -112.135940 222 6603ft 0kts
23-Oct-18 18:32 35.960045 -112.135940 222 6603ft 0kts
23-Oct-18 18:33 35.960260 -112.136208 347 6603ft 0kts
23-Oct-18 18:34 35.961016 -112.136308 336 6603ft 0kts
23-Oct-18 18:35 35.958288 -112.140671 219 6603ft 86kts
23-Oct-18 18:36 35.932789 -112.172716 227 7673ft 158kts
23-Oct-18 18:37 35.924993 -112.223117 281 9503ft 160kts
23-Oct-18 18:38 35.929871 -112.282302 252 10071ft 188kts
23-Oct-18 18:39 35.916924 -112.335778 251 11338ft 163kts
23-Oct-18 18:40 35.904051 -112.388156 251 13428ft 159kts
23-Oct-18 18:41 35.891235 -112.440707 251 15228ft 162kts
23-Oct-18 18:42 35.878530 -112.494419 250 16865ft 165kts
23-Oct-18 18:43 35.865543 -112.549246 250 18364ft 168kts
23-Oct-18 18:44 35.852306 -112.604998 250 19732ft 171kts
23-Oct-18 18:45 35.838949 -112.661133 249 20979ft 174kts
23-Oct-18 18:46 35.825322 -112.718250 249 22130ft 179kts
23-Oct-18 18:47 35.811186 -112.777460 248 24041ft 180kts
23-Oct-18 18:48 35.796832 -112.837251 248 25683ft 185kts
23-Oct-18 18:49 35.782134 -112.898354 249 27162ft 189kts
23-Oct-18 18:50 35.767057 -112.960904 250 28511ft 192kts
23-Oct-18 18:51 35.751666 -113.024598 252 29700ft 197kts
23-Oct-18 18:52 35.734903 -113.094020 257 30160ft 231kts
23-Oct-18 18:53 35.714904 -113.176477 256 30100ft 269kts
23-Oct-18 18:54 35.692550 -113.268198 256 30038ft 290kts
23-Oct-18 18:55 35.669000 -113.364390 256 30018ft 297kts
23-Oct-18 18:56 35.645014 -113.462084 255 30018ft 300kts
23-Oct-18 18:57 35.639944 -113.561065 292 30005ft 293kts
23-Oct-18 18:58 35.683045 -113.645442 306 30018ft 292kts
23-Oct-18 18:59 35.728144 -113.724211 305 30018ft 293kts
23-Oct-18 19:00 35.774443 -113.804979 305 30017ft 293kts
23-Oct-18 19:01 35.821497 -113.887263 305 30018ft 293kts
23-Oct-18 19:02 35.860486 -113.955592 305 30017ft 293kts
23-Oct-18 19:03 35.915178 -114.051659 305 30012ft 294kts
23-Oct-18 19:04 35.954176 -114.120328 305 30004ft 294kts
23-Oct-18 19:05 36.008723 -114.216603 305 29991ft 294kts
23-Oct-18 19:06 36.047463 -114.285145 305 29985ft 293kts
23-Oct-18 19:07 36.100839 -114.379795 305 29988ft 293kts
23-Oct-18 19:08 36.137852 -114.445576 305 29993ft 293kts
23-Oct-18 19:09 36.206062 -114.494485 349 29993ft 296kts
23-Oct-18 19:10 36.287702 -114.505069 352 29987ft 297kts
23-Oct-18 19:11 36.370245 -114.514147 350 29995ft 300kts
23-Oct-18 19:12 36.453399 -114.523296 350 29990ft 302kts
23-Oct-18 19:13 36.537292 -114.532531 350 29988ft 303kts
23-Oct-18 19:14 36.620995 -114.541766 350 29988ft 303kts
23-Oct-18 19:15 36.705079 -114.551060 350 29987ft 303kts
23-Oct-18 19:16 36.788962 -114.560357 350 29987ft 303kts
23-Oct-18 19:17 36.872653 -114.569649 350 29987ft 303kts
23-Oct-18 19:18 36.956655 -114.578995 350 29987ft 304kts
23-Oct-18 19:19 37.040065 -114.588314 353 29996ft 297kts
23-Oct-18 19:20 37.121212 -114.597335 352 30015ft 293kts
23-Oct-18 19:21 37.202102 -114.606424 352 30016ft 293kts
23-Oct-18 19:22 37.283265 -114.615535 352 30013ft 294kts
23-Oct-18 19:23 37.364272 -114.624648 352 30011ft 294kts
23-Oct-18 19:24 37.445513 -114.633807 352 30008ft 293kts
23-Oct-18 19:25 37.526638 -114.642974 352 30023ft 293kts
23-Oct-18 19:26 37.607005 -114.652075 351 30045ft 293kts
23-Oct-18 19:27 37.688321 -114.661300 351 30046ft 293kts
23-Oct-18 19:28 37.769361 -114.670520 351 30046ft 294kts
23-Oct-18 19:29 37.850559 -114.679773 351 30097ft 293kts
23-Oct-18 19:30 37.931269 -114.688991 351 30154ft 292kts
23-Oct-18 19:31 38.012224 -114.698256 351 30166ft 293kts
23-Oct-18 19:32 38.093263 -114.707557 351 30172ft 293kts
23-Oct-18 19:33 38.173695 -114.716808 351 30176ft 294kts
23-Oct-18 19:34 38.254973 -114.726177 351 30176ft 294kts
23-Oct-18 19:35 38.336350 -114.735577 351 30175ft 295kts
23-Oct-18 19:36 38.418073 -114.745039 351 30175ft 295kts
23-Oct-18 19:37 38.499373 -114.754471 351 30174ft 295kts
23-Oct-18 19:38 38.580903 -114.763950 351 30174ft 294kts
23-Oct-18 19:39 38.662277 -114.773436 351 30174ft 294kts
23-Oct-18 19:40 38.743506 -114.782925 351 30173ft 294kts
23-Oct-18 19:41 38.824815 -114.792446 351 30173ft 294kts
23-Oct-18 19:42 38.906075 -114.801958 351 30171ft 294kts
23-Oct-18 19:43 38.987815 -114.811564 350 30172ft 297kts
23-Oct-18 19:44 39.070657 -114.821359 349 30175ft 303kts
23-Oct-18 19:45 39.153705 -114.831184 349 30176ft 306kts
23-Oct-18 19:46 39.238445 -114.841223 349 30175ft 307kts
23-Oct-18 19:47 39.323372 -114.849981 351 30175ft 308kts
23-Oct-18 19:48 39.408844 -114.855856 351 30174ft 308kts
23-Oct-18 19:49 39.494245 -114.861698 351 30174ft 308kts
23-Oct-18 19:50 39.579958 -114.867575 351 30174ft 308kts
23-Oct-18 19:51 39.665447 -114.873449 351 30174ft 308kts
23-Oct-18 19:52 39.750713 -114.879325 351 30174ft 308kts
23-Oct-18 19:53 39.836296 -114.885237 351 30174ft 308kts
23-Oct-18 19:54 39.921831 -114.891160 351 30173ft 308kts
23-Oct-18 19:55 40.007351 -114.897096 351 30173ft 308kts
23-Oct-18 19:56 40.092525 -114.903025 351 30173ft 308kts
23-Oct-18 19:57 40.178052 -114.908993 351 30172ft 309kts
23-Oct-18 19:58 40.263598 -114.914976 351 30143ft 309kts
23-Oct-18 19:59 40.349388 -114.920992 351 30119ft 309kts
23-Oct-18 20:00 40.434970 -114.927008 351 30119ft 309kts
23-Oct-18 20:01 40.520640 -114.933046 351 30119ft 309kts
23-Oct-18 20:02 40.606267 -114.939096 351 30119ft 309kts
23-Oct-18 20:03 40.691800 -114.945156 351 30119ft 308kts
23-Oct-18 20:04 40.777347 -114.951232 351 30118ft 308kts
23-Oct-18 20:05 40.862759 -114.957315 351 30118ft 308kts
23-Oct-18 20:06 40.948049 -114.963404 351 30118ft 308kts
23-Oct-18 20:07 41.033394 -114.969508 351 30118ft 308kts
23-Oct-18 20:08 41.117406 -114.975532 351 30120ft 306kts
23-Oct-18 20:09 41.202700 -114.973811 357 30119ft 307kts
23-Oct-18 20:10 41.287760 -114.968462 357 30119ft 307kts
23-Oct-18 20:11 41.372417 -114.963096 357 30128ft 306kts
23-Oct-18 20:12 41.457211 -114.957690 357 30127ft 306kts
23-Oct-18 20:13 41.542230 -114.952262 357 30118ft 306kts
23-Oct-18 20:14 41.627001 -114.946836 357 30109ft 306kts
23-Oct-18 20:15 41.711876 -114.941394 357 30109ft 306kts
23-Oct-18 20:16 41.796805 -114.935926 357 30109ft 306kts
23-Oct-18 20:17 41.881634 -114.930452 357 30109ft 306kts
23-Oct-18 20:18 41.966632 -114.924954 357 30109ft 306kts
23-Oct-18 20:19 42.051645 -114.919453 357 29691ft 312kts
23-Oct-18 20:20 42.137174 -114.913888 357 28917ft 315kts
23-Oct-18 20:21 42.224088 -114.908215 357 28137ft 316kts
23-Oct-18 20:22 42.311592 -114.902491 357 27351ft 317kts
23-Oct-18 20:23 42.399337 -114.896737 358 26563ft 317kts
23-Oct-18 20:24 42.487398 -114.890948 358 25628ft 316kts
23-Oct-18 20:25 42.574757 -114.885188 358 24639ft 316kts
23-Oct-18 20:26 42.661458 -114.879436 358 24105ft 304kts
23-Oct-18 20:27 42.737160 -114.901594 314 23369ft 282kts
23-Oct-18 20:28 42.791814 -114.977041 311 22320ft 279kts
23-Oct-18 20:29 42.844678 -115.052906 310 21247ft 275kts
23-Oct-18 20:30 42.897121 -115.128504 310 19876ft 274kts
23-Oct-18 20:31 42.948778 -115.203283 310 18647ft 268kts
23-Oct-18 20:32 42.999427 -115.276881 310 17409ft 263kts
23-Oct-18 20:33 43.048851 -115.348868 310 16315ft 258kts
23-Oct-18 20:34 43.097424 -115.419782 310 15319ft 254kts
23-Oct-18 20:35 43.145409 -115.490001 310 14427ft 251kts
23-Oct-18 20:36 43.192203 -115.558485 310 13199ft 246kts
23-Oct-18 20:37 43.238490 -115.626363 310 11863ft 242kts
23-Oct-18 20:38 43.280413 -115.696231 294 10762ft 238kts
23-Oct-18 20:39 43.309566 -115.773718 293 10067ft 223kts
23-Oct-18 20:40 43.337999 -115.849905 293 8934ft 226kts
23-Oct-18 20:41 43.366465 -115.926383 293 7929ft 226kts
23-Oct-18 20:42 43.394770 -116.002619 293 7073ft 222kts
23-Oct-18 20:43 43.421368 -116.074435 293 7047ft 204kts
23-Oct-18 20:44 43.447037 -116.143964 293 6860ft 208kts
23-Oct-18 20:45 43.473194 -116.216827 292 6281ft 216kts
23-Oct-18 20:46 43.500064 -116.291553 308 5637ft 225kts
23-Oct-18 20:47 43.554803 -116.299637 33 4640ft 188kts
23-Oct-18 20:48 43.575432 -116.257801 119 3491ft 117kts
23-Oct-18 20:49 43.566314 -116.230187 24 2842ft 19kts
23-Oct-18 20:50 43.569976 -116.227813 23 2842ft 18kts
23-Oct-18 20:51 43.569794 -116.226840 184 2842ft 0kts
23-Oct-18 20:52 43.569794 -116.226840 184 2841ft 0kts
23-Oct-18 20:53 43.569794 -116.226840 184 2841ft 0kts
23-Oct-18 20:54 43.569794 -116.226840 184 2841ft 0kts

Navigation Log

Ident Type
Flight plan parsing failed, navigation log unavailable